PACV METAR and TAF weather

Enter ICAO airport designator
Station Type Date Time Source
PACV METAR 2020/08/15 15:23 UTC NOAA

PACV 151523Z 07003KT 10SM -RA BKN009 OVC023 12/10 A2971 RMK AO2 RAB20 P0000 T01170100 $


Station Type Date Time Source
PACV Decoded METAR 2020/08/15 15:23 UTC NOAA

MERLE K. SMITH AIRPORT, AK, United States (PACV) 60-30N 145-29W 13M
Aug 15, 2020 - 11:23 AM EDT / 2020.08.15 1523 UTC
Wind: from the ENE (070 degrees) at 3 MPH (3 KT):0
Visibility: 10 mile(s):0
Sky conditions: overcast
Weather: light rain
Precipitation last hour: A trace
Temperature: 53.1 F (11.7 C)
Dew Point: 50.0 F (10.0 C)
Relative Humidity: 89%
Pressure (altimeter): 29.71 in. Hg (1006 hPa)
ob: PACV 151523Z 07003KT 10SM -RA BKN009 OVC023 12/10 A2971 RMK AO2 RAB20 P0000 T01170100
cycle: 15

Station Type Date Time Source
PACV TAF 2020/08/15 12:36 UTC NOAA

TAF PACV 151134Z 1512/1612 VRB03KT P6SM OVC025
FM151800 VRB03KT P6SM SCT025 BKN250
FM160300 14009KT P6SM SCT015 BKN050

Example: see airport list